Time;durP1;ratioP1;P1;durP2;ratioP2;P2;SDS_P1;SDS_P2;PMS_P1;PMS_P2;Temp;Humidity;BMP_temperature;BMP_pressure;BME280_temperature;BME280_humidity;BME280_pressure;Samples;Min_cycle;Max_cycle;Signal;HPM_P1;HPM_P2
2023/12/02 00:00:40;;;;;;;14.20;1.02;;;;;;;12.89;100.00;98541.97;5057223;28;20419;-68
2023/12/02 00:03:05;;;;;;;13.07;0.50;;;;;;;12.91;100.00;98544.38;5058105;28;21733;-67
2023/12/02 00:05:31;;;;;;;10.80;0.70;;;;;;;12.86;100.00;98529.31;5060955;28;20024;-68
2023/12/02 00:07:56;;;;;;;9.50;0.57;;;;;;;12.83;100.00;98529.72;5062653;28;20036;-68
2023/12/02 00:10:22;;;;;;;8.57;1.33;;;;;;;12.79;100.00;98518.06;5057323;28;20028;-67
2023/12/02 00:12:47;;;;;;;11.38;0.70;;;;;;;12.82;100.00;98527.31;5056240;28;20375;-67
2023/12/02 00:15:13;;;;;;;17.33;1.67;;;;;;;12.83;100.00;98524.50;5058491;28;20037;-68
2023/12/02 00:17:39;;;;;;;16.80;1.40;;;;;;;12.86;100.00;98513.63;5057231;28;20024;-67
2023/12/02 00:20:05;;;;;;;9.20;0.82;;;;;;;12.91;100.00;98516.41;5059318;28;20035;-67
2023/12/02 00:22:30;;;;;;;10.98;0.73;;;;;;;12.98;100.00;98511.19;5052355;28;20033;-67
2023/12/02 00:24:56;;;;;;;11.73;0.93;;;;;;;12.94;100.00;98521.25;5057579;28;20016;-68
2023/12/02 00:27:21;;;;;;;9.02;0.52;;;;;;;13.02;100.00;98512.38;5057209;28;20036;-68
2023/12/02 00:29:47;;;;;;;14.30;0.98;;;;;;;13.04;100.00;98514.78;5058764;28;20036;-68
2023/12/02 00:32:12;;;;;;;11.18;0.75;;;;;;;13.16;100.00;98506.09;5058362;28;20033;-68
2023/12/02 00:34:38;;;;;;;9.30;0.50;;;;;;;13.22;100.00;98514.94;5055871;28;20055;-68
2023/12/02 00:37:03;;;;;;;13.77;0.90;;;;;;;13.24;100.00;98510.28;5064474;28;20117;-68
2023/12/02 00:39:29;;;;;;;9.85;0.82;;;;;;;13.19;100.00;98507.50;5057921;28;20389;-68
2023/12/02 00:41:54;;;;;;;10.90;1.10;;;;;;;13.25;100.00;98504.03;5065452;28;20027;-68
2023/12/02 00:44:20;;;;;;;10.45;0.98;;;;;;;13.20;100.00;98509.91;5062936;28;20040;-67
2023/12/02 00:46:45;;;;;;;6.07;0.55;;;;;;;13.15;100.00;98501.06;5058097;28;20025;-68
2023/12/02 00:49:11;;;;;;;11.30;0.60;;;;;;;13.25;100.00;98512.69;5059274;28;20047;-69
2023/12/02 00:51:36;;;;;;;6.75;0.63;;;;;;;13.24;100.00;98505.84;5060014;28;20541;-68
2023/12/02 00:54:02;;;;;;;13.30;0.70;;;;;;;13.31;100.00;98503.19;5063499;28;20051;-68
2023/12/02 00:56:27;;;;;;;6.93;0.93;;;;;;;13.31;100.00;98487.50;5061330;28;20123;-68
2023/12/02 00:58:53;;;;;;;6.65;0.60;;;;;;;13.37;100.00;98470.97;5057056;28;20043;-68
2023/12/02 01:01:18;;;;;;;11.38;0.80;;;;;;;13.41;100.00;98495.72;5058794;28;20126;-68
2023/12/02 01:03:44;;;;;;;11.63;1.45;;;;;;;13.31;100.00;98500.59;5066645;28;20513;-69
2023/12/02 01:06:09;;;;;;;10.68;0.52;;;;;;;13.29;100.00;98500.78;5064641;28;20029;-68
2023/12/02 01:08:35;;;;;;;10.98;0.80;;;;;;;13.36;100.00;98481.66;5057052;28;20044;-68
2023/12/02 01:11:01;;;;;;;10.13;0.65;;;;;;;13.29;100.00;98487.72;5065922;28;20046;-68
2023/12/02 01:13:27;;;;;;;14.77;0.80;;;;;;;13.32;100.00;98475.22;5065179;28;20041;-69
2023/12/02 01:15:52;;;;;;;9.07;1.08;;;;;;;13.43;100.00;98478.00;5061718;28;20041;-68
2023/12/02 01:18:18;;;;;;;7.75;0.77;;;;;;;13.57;100.00;98481.31;5064317;28;20041;-68
2023/12/02 01:20:44;;;;;;;8.55;0.63;;;;;;;13.58;100.00;98481.13;5062459;28;20131;-68
2023/12/02 01:23:10;;;;;;;11.20;0.63;;;;;;;13.52;100.00;98479.34;5059657;28;20493;-68
2023/12/02 01:25:35;;;;;;;9.05;0.68;;;;;;;13.62;100.00;98476.25;5061092;28;20094;-68
2023/12/02 01:28:01;;;;;;;11.02;0.98;;;;;;;13.61;100.00;98475.47;5060953;28;20558;-68
2023/12/02 01:30:27;;;;;;;6.70;0.70;;;;;;;13.59;100.00;98495.00;5058424;28;20025;-69
2023/12/02 01:32:53;;;;;;;10.52;0.70;;;;;;;13.59;100.00;98471.44;5062976;28;20042;-68
2023/12/02 01:35:18;;;;;;;10.75;0.68;;;;;;;13.63;100.00;98480.47;5056369;28;20032;-68
2023/12/02 01:37:44;;;;;;;6.75;0.65;;;;;;;13.61;100.00;98475.47;5058064;28;20024;-69
2023/12/02 01:40:12;;;;;;;10.52;0.63;;;;;;;13.53;100.00;98478.31;5060618;28;20035;-69
2023/12/02 01:42:38;;;;;;;8.93;0.70;;;;;;;13.46;100.00;98472.34;5063140;28;20028;-68
2023/12/02 01:45:04;;;;;;;10.43;0.80;;;;;;;13.45;100.00;98481.19;5060700;28;20442;-69
2023/12/02 01:47:29;;;;;;;7.70;0.95;;;;;;;13.63;100.00;98477.06;5064800;28;20041;-68
2023/12/02 01:49:57;;;;;;;5.20;0.38;;;;;;;13.71;100.00;98476.78;5064229;28;20094;-68
2023/12/02 01:52:22;;;;;;;12.13;0.93;;;;;;;13.79;100.00;98476.53;5058487;28;20025;-68
2023/12/02 01:54:48;;;;;;;8.50;0.70;;;;;;;13.85;100.00;98466.00;5060490;28;20044;-68
2023/12/02 01:57:14;;;;;;;12.27;0.80;;;;;;;13.97;100.00;98478.41;5061089;28;20098;-68
2023/12/02 01:59:52;;;;;;;11.57;0.60;;;;;;;13.95;100.00;98481.22;5060287;28;20515;-68
2023/12/02 02:02:18;;;;;;;9.95;0.98;;;;;;;14.00;100.00;98465.69;5064084;28;20034;-68
2023/12/02 02:04:43;;;;;;;8.07;0.77;;;;;;;14.07;100.00;98470.88;5060897;28;20051;-68
2023/12/02 02:07:09;;;;;;;11.48;0.75;;;;;;;14.11;100.00;98459.75;5061223;28;20389;-68
2023/12/02 02:09:43;;;;;;;13.15;0.80;;;;;;;14.09;100.00;98451.31;5061768;28;20571;-68
2023/12/02 02:12:09;;;;;;;11.13;1.08;;;;;;;14.20;100.00;98453.19;5062244;28;20100;-68
2023/12/02 02:14:34;;;;;;;11.90;1.27;;;;;;;14.20;100.00;98460.25;5053578;28;20053;-68
2023/12/02 02:16:59;;;;;;;13.20;1.15;;;;;;;14.44;100.00;98458.66;5065311;28;20032;-69
2023/12/02 02:19:25;;;;;;;7.85;0.80;;;;;;;14.46;100.00;98443.50;5063452;28;20051;-69
2023/12/02 02:21:55;;;;;;;8.45;0.73;;;;;;;14.43;100.00;98438.69;5062425;28;20108;-69
2023/12/02 02:24:20;;;;;;;10.30;0.68;;;;;;;14.43;100.00;98434.25;5056906;28;20039;-69
2023/12/02 02:26:45;;;;;;;13.93;0.60;;;;;;;14.51;100.00;98438.41;5060715;28;20393;-69
2023/12/02 02:29:12;;;;;;;7.38;0.60;;;;;;;14.70;100.00;98440.00;5060103;28;20078;-68
2023/12/02 02:31:37;;;;;;;11.82;1.02;;;;;;;14.60;100.00;98430.03;5057643;28;20446;-68
2023/12/02 02:34:03;;;;;;;15.40;0.68;;;;;;;14.42;100.00;98431.84;5054009;28;20043;-68
2023/12/02 02:36:28;;;;;;;14.43;1.20;;;;;;;14.36;100.00;98425.63;5061791;28;20044;-68
2023/12/02 02:38:54;;;;;;;9.50;0.65;;;;;;;14.39;100.00;98430.44;5055138;28;20482;-68
2023/12/02 02:41:19;;;;;;;14.18;1.10;;;;;;;14.35;100.00;98425.84;5065968;28;20036;-69
2023/12/02 02:43:46;;;;;;;8.93;2.00;;;;;;;14.21;100.00;98418.13;5058123;28;20032;-68
2023/12/02 02:46:13;;;;;;;8.65;1.52;;;;;;;14.14;100.00;98417.41;5067230;28;20143;-68
2023/12/02 02:48:38;;;;;;;14.00;0.50;;;;;;;14.13;100.00;98413.19;5064804;28;20550;-69
2023/12/02 02:51:04;;;;;;;17.65;0.70;;;;;;;14.09;100.00;98419.09;5060804;28;20036;-68
2023/12/02 02:53:30;;;;;;;10.48;0.77;;;;;;;14.04;100.00;98417.13;5059788;28;20519;-69
2023/12/02 02:55:55;;;;;;;12.18;1.00;;;;;;;13.94;100.00;98417.59;5060097;28;20036;-69
2023/12/02 02:58:21;;;;;;;7.90;0.70;;;;;;;13.76;100.00;98414.94;5058129;28;20480;-69
2023/12/02 03:00:46;;;;;;;8.07;0.55;;;;;;;13.70;100.00;98404.56;5044910;28;20362;-68
2023/12/02 03:03:12;;;;;;;12.13;0.82;;;;;;;13.49;100.00;98411.75;5065789;28;20186;-68
2023/12/02 03:05:37;;;;;;;5.72;0.55;;;;;;;13.34;100.00;98405.22;5061246;28;20043;-69
2023/12/02 03:08:03;;;;;;;10.20;0.90;;;;;;;13.43;100.00;98399.50;5066107;28;20044;-70
2023/12/02 03:10:29;;;;;;;22.25;1.85;;;;;;;13.52;100.00;98398.25;5060142;28;20040;-72
2023/12/02 03:12:55;;;;;;;10.43;1.17;;;;;;;13.54;100.00;98395.41;5055797;28;20048;-71
2023/12/02 03:15:20;;;;;;;12.93;0.70;;;;;;;13.39;100.00;98390.47;5058209;28;20500;-69
2023/12/02 03:17:46;;;;;;;9.60;0.90;;;;;;;13.22;100.00;98392.03;5058306;28;20029;-68
2023/12/02 03:20:11;;;;;;;12.77;0.93;;;;;;;13.20;100.00;98394.88;5054462;28;20140;-69
2023/12/02 03:22:37;;;;;;;8.15;0.85;;;;;;;13.31;100.00;98380.28;5059901;28;20042;-68
2023/12/02 03:25:03;;;;;;;8.75;0.60;;;;;;;13.31;100.00;98372.44;5055240;28;20549;-68
2023/12/02 03:27:28;;;;;;;8.02;0.77;;;;;;;13.39;100.00;98366.94;5042278;28;20044;-69
2023/12/02 03:29:53;;;;;;;9.18;1.00;;;;;;;13.39;100.00;98351.25;5057401;28;20488;-69
2023/12/02 03:32:19;;;;;;;11.02;0.50;;;;;;;13.40;100.00;98349.44;5052680;28;20032;-68
2023/12/02 03:34:44;;;;;;;19.75;1.70;;;;;;;13.38;100.00;98347.03;5057903;28;20036;-69
2023/12/02 03:37:10;;;;;;;10.73;0.85;;;;;;;13.37;100.00;98355.09;5063945;28;20028;-69
2023/12/02 03:39:36;;;;;;;17.50;1.13;;;;;;;13.29;100.00;98361.38;5057976;28;20163;-68
2023/12/02 03:42:01;;;;;;;10.30;1.02;;;;;;;13.18;100.00;98365.50;5059904;28;20028;-69
2023/12/02 03:44:27;;;;;;;13.60;1.02;;;;;;;13.11;100.00;98366.53;5061388;28;20051;-69
2023/12/02 03:46:52;;;;;;;8.07;1.42;;;;;;;12.99;100.00;98365.59;5064311;28;20037;-69
2023/12/02 03:49:18;;;;;;;8.43;0.93;;;;;;;12.90;100.00;98370.28;5057765;28;20074;-69
2023/12/02 03:51:43;;;;;;;16.27;0.90;;;;;;;12.80;100.00;98375.94;5055464;28;20032;-69
2023/12/02 03:54:09;;;;;;;9.90;0.75;;;;;;;12.73;100.00;98361.34;5060857;28;20033;-69
2023/12/02 03:56:35;;;;;;;7.82;1.08;;;;;;;12.62;100.00;98360.97;5054604;28;20055;-69
2023/12/02 03:59:00;;;;;;;12.90;0.90;;;;;;;12.57;100.00;98357.38;5057973;28;20061;-69
2023/12/02 04:01:26;;;;;;;21.92;1.25;;;;;;;12.51;100.00;98371.28;5053444;28;20172;-68
2023/12/02 04:03:51;;;;;;;9.02;1.23;;;;;;;12.62;100.00;98368.03;5057726;28;20021;-69
2023/12/02 04:06:17;;;;;;;12.07;0.93;;;;;;;12.68;100.00;98358.56;5061834;28;20164;-69
2023/12/02 04:08:42;;;;;;;14.77;1.58;;;;;;;12.75;100.00;98349.66;5065340;28;20382;-69
2023/12/02 04:11:11;;;;;;;11.02;0.90;;;;;;;12.79;100.00;98339.56;5062046;28;20050;-69
2023/12/02 04:13:36;;;;;;;14.48;1.27;;;;;;;12.83;100.00;98328.50;5056557;28;20493;-68
2023/12/02 04:16:02;;;;;;;13.77;1.23;;;;;;;12.77;100.00;98345.00;5059871;28;20040;-69
2023/12/02 04:18:27;;;;;;;15.13;1.50;;;;;;;12.66;100.00;98343.09;5057034;28;20146;-68
2023/12/02 04:20:53;;;;;;;14.88;1.42;;;;;;;12.67;100.00;98336.84;5058531;28;20516;-69
2023/12/02 04:23:18;;;;;;;9.48;1.10;;;;;;;12.70;100.00;98320.75;5061338;28;20810;-69
2023/12/02 04:25:44;;;;;;;14.77;0.75;;;;;;;12.64;100.00;98326.81;5061657;28;20033;-69
2023/12/02 04:28:09;;;;;;;7.43;0.88;;;;;;;12.58;100.00;98338.09;5061435;28;20037;-69
2023/12/02 04:30:35;;;;;;;13.05;1.05;;;;;;;12.62;100.00;98327.03;5057580;28;20032;-69
2023/12/02 04:33:01;;;;;;;19.90;0.93;;;;;;;12.59;100.00;98329.25;5058487;28;20038;-69
2023/12/02 04:35:26;;;;;;;7.57;0.90;;;;;;;12.57;100.00;98336.50;5061340;28;20346;-69
2023/12/02 04:37:51;;;;;;;12.20;0.70;;;;;;;12.52;100.00;98324.06;5049878;28;20542;-68
2023/12/02 04:40:17;;;;;;;20.58;1.65;;;;;;;12.61;100.00;98332.44;5054846;28;20024;-68
2023/12/02 04:42:43;;;;;;;13.63;1.42;;;;;;;12.59;100.00;98339.69;5062648;28;20029;-69
2023/12/02 04:45:09;;;;;;;12.63;1.13;;;;;;;12.54;100.00;98308.19;5063341;28;20068;-68
2023/12/02 04:47:36;;;;;;;12.27;1.55;;;;;;;12.58;100.00;98311.97;5056504;28;20477;-68
2023/12/02 04:50:06;;;;;;;11.30;1.40;;;;;;;12.52;100.00;98312.81;5065216;28;20043;-68
2023/12/02 04:52:32;;;;;;;15.77;0.98;;;;;;;12.52;100.00;98318.03;5057664;28;21261;-69
2023/12/02 04:54:58;;;;;;;7.30;0.82;;;;;;;12.47;100.00;98323.06;5063126;28;20075;-68
2023/12/02 04:57:23;;;;;;;12.73;1.33;;;;;;;12.41;100.00;98316.06;5053320;28;20024;-69
2023/12/02 04:59:49;;;;;;;15.70;1.05;;;;;;;12.36;100.00;98323.72;5058672;28;20040;-69
2023/12/02 05:02:18;;;;;;;16.85;1.10;;;;;;;12.30;100.00;98302.66;5065877;28;20035;-68
2023/12/02 05:04:44;;;;;;;13.68;1.63;;;;;;;12.29;100.00;98313.31;5056451;28;20024;-68
2023/12/02 05:07:09;;;;;;;14.43;1.42;;;;;;;12.26;100.00;98316.34;5058240;28;20040;-68
2023/12/02 05:09:36;;;;;;;14.02;0.82;;;;;;;12.19;100.00;98319.00;5068772;28;20044;-68
2023/12/02 05:12:01;;;;;;;11.20;1.17;;;;;;;12.13;100.00;98309.38;5064056;28;20028;-68
2023/12/02 05:14:27;;;;;;;11.48;0.93;;;;;;;12.10;100.00;98307.16;5059331;28;20600;-68
2023/12/02 05:16:52;;;;;;;15.70;1.23;;;;;;;12.06;100.00;98308.59;5056252;28;20450;-68
2023/12/02 05:19:18;;;;;;;11.55;0.85;;;;;;;12.01;100.00;98303.19;5065638;28;20036;-68
2023/12/02 05:21:43;;;;;;;8.50;1.10;;;;;;;12.02;100.00;98309.19;5054267;28;20519;-68
2023/12/02 05:24:09;;;;;;;9.55;1.05;;;;;;;11.94;100.00;98302.41;5062893;28;20033;-68
2023/12/02 05:26:34;;;;;;;22.05;0.80;;;;;;;11.96;100.00;98313.44;5059078;28;20736;-68
2023/12/02 05:29:01;;;;;;;13.60;1.20;;;;;;;11.95;100.00;98296.97;5059538;28;20036;-68
2023/12/02 05:31:27;;;;;;;7.55;1.08;;;;;;;11.94;100.00;98299.78;5053744;28;20516;-68
2023/12/02 05:33:52;;;;;;;7.80;1.30;;;;;;;11.89;100.00;98292.56;5063387;28;21353;-68
2023/12/02 05:36:17;;;;;;;14.25;0.80;;;;;;;11.88;100.00;98284.94;5058079;28;20085;-68
2023/12/02 05:38:43;;;;;;;8.82;0.75;;;;;;;11.86;100.00;98292.19;5061943;28;20044;-67
2023/12/02 05:41:08;;;;;;;11.13;0.95;;;;;;;11.85;100.00;98277.53;5057224;28;20103;-67
2023/12/02 05:43:34;;;;;;;13.73;1.15;;;;;;;11.92;100.00;98278.31;5061582;28;20567;-67
2023/12/02 05:46:00;;;;;;;13.05;1.27;;;;;;;11.92;100.00;98276.50;5062633;28;20020;-67
2023/12/02 05:48:25;;;;;;;12.73;1.52;;;;;;;11.96;100.00;98275.09;5053658;28;20064;-67
2023/12/02 05:50:51;;;;;;;14.73;0.95;;;;;;;11.99;100.00;98273.06;5060616;28;20123;-67
2023/12/02 05:53:16;;;;;;;9.35;1.05;;;;;;;11.92;100.00;98278.31;5060447;28;20024;-68
2023/12/02 05:55:42;;;;;;;12.02;0.95;;;;;;;11.91;100.00;98264.47;5055477;28;20025;-67
2023/12/02 05:58:07;;;;;;;8.07;0.47;;;;;;;11.93;100.00;98264.25;5057213;28;20033;-67
2023/12/02 06:00:35;;;;;;;13.93;0.80;;;;;;;11.91;100.00;98268.88;5057436;28;20126;-68
2023/12/02 06:03:01;;;;;;;15.50;1.58;;;;;;;11.89;100.00;98263.06;5059595;28;20075;-67
2023/12/02 06:05:27;;;;;;;12.73;0.90;;;;;;;11.91;100.00;98263.66;5058451;28;20037;-68
2023/12/02 06:07:53;;;;;;;8.18;1.23;;;;;;;11.96;100.00;98269.06;5036961;28;20536;-67
2023/12/02 06:10:18;;;;;;;11.43;0.52;;;;;;;11.91;100.00;98259.25;5056901;28;20029;-68
2023/12/02 06:12:44;;;;;;;11.85;0.50;;;;;;;11.86;100.00;98261.66;5059928;28;20536;-67
2023/12/02 06:15:11;;;;;;;8.88;0.77;;;;;;;11.81;100.00;98273.75;5049731;28;20098;-68
2023/12/02 06:17:37;;;;;;;12.98;0.93;;;;;;;11.77;100.00;98259.53;5054981;28;20040;-68
2023/12/02 06:20:03;;;;;;;6.03;1.05;;;;;;;11.77;100.00;98256.91;5056438;28;20035;-68
2023/12/02 06:22:29;;;;;;;9.88;1.08;;;;;;;11.78;100.00;98238.44;5060112;28;20035;-68
2023/12/02 06:24:54;;;;;;;15.63;1.42;;;;;;;11.78;100.00;98229.81;5035706;28;20029;-68
2023/12/02 06:27:20;;;;;;;10.50;1.35;;;;;;;11.82;100.00;98233.59;5049706;28;20470;-68
2023/12/02 06:29:45;;;;;;;9.50;1.02;;;;;;;11.82;100.00;98228.38;5051971;28;20111;-69
2023/12/02 06:32:10;;;;;;;9.70;1.10;;;;;;;11.83;100.00;98236.00;5035717;28;20029;-68
2023/12/02 06:34:36;;;;;;;8.02;0.52;;;;;;;11.81;100.00;98245.06;5056280;28;20028;-68
2023/12/02 06:37:01;;;;;;;10.93;0.68;;;;;;;11.80;100.00;98239.03;5051366;28;20033;-68
2023/12/02 06:39:27;;;;;;;11.18;1.10;;;;;;;11.85;100.00;98241.00;5034403;28;20040;-69
2023/12/02 06:41:53;;;;;;;9.23;0.50;;;;;;;11.88;100.00;98245.81;5054105;28;21859;-69
2023/12/02 06:44:18;;;;;;;10.98;0.95;;;;;;;11.84;100.00;98249.84;5054287;28;20040;-68
2023/12/02 06:46:44;;;;;;;10.68;0.80;;;;;;;11.90;100.00;98242.00;5054696;28;20051;-68
2023/12/02 06:49:09;;;;;;;14.55;1.17;;;;;;;11.96;100.00;98235.94;5055322;28;20090;-68
2023/12/02 06:51:34;;;;;;;9.43;0.93;;;;;;;11.91;100.00;98230.53;5055285;28;20048;-68
2023/12/02 06:54:00;;;;;;;9.45;0.90;;;;;;;11.93;100.00;98236.34;5056819;28;20052;-68
2023/12/02 06:56:26;;;;;;;11.60;0.60;;;;;;;12.00;100.00;98244.16;5054200;28;20028;-68
2023/12/02 06:58:52;;;;;;;6.32;0.55;;;;;;;12.00;100.00;98243.38;5053830;28;20494;-68
2023/12/02 07:01:28;;;;;;;10.25;0.60;;;;;;;11.97;100.00;98247.19;5051598;28;20025;-68
2023/12/02 07:03:55;;;;;;;7.72;0.98;;;;;;;11.94;100.00;98237.97;5052198;28;20029;-67
2023/12/02 07:06:20;;;;;;;9.90;0.82;;;;;;;11.94;100.00;98248.41;5050941;28;20389;-67
2023/12/02 07:08:47;;;;;;;5.63;1.00;;;;;;;11.95;100.00;98238.75;5048919;28;20037;-67
2023/12/02 07:11:13;;;;;;;14.68;1.17;;;;;;;11.99;100.00;98245.16;5054489;28;20033;-67
2023/12/02 07:13:39;;;;;;;5.88;0.60;;;;;;;11.99;100.00;98250.38;5052876;28;20079;-66
2023/12/02 07:16:05;;;;;;;12.13;1.23;;;;;;;11.99;100.00;98255.59;5053801;28;20076;-67
2023/12/02 07:18:30;;;;;;;11.93;0.75;;;;;;;11.99;100.00;98257.41;5051337;28;20102;-67
2023/12/02 07:20:55;;;;;;;15.48;1.60;;;;;;;12.01;100.00;98244.97;5054720;28;21177;-67
2023/12/02 07:23:21;;;;;;;8.02;0.70;;;;;;;12.03;100.00;98245.56;5053451;28;20041;-66
2023/12/02 07:25:46;;;;;;;8.32;1.10;;;;;;;12.03;100.00;98243.75;5052567;28;20466;-66
2023/12/02 07:28:12;;;;;;;13.00;1.00;;;;;;;12.07;100.00;98244.94;5060556;28;20043;-67
2023/12/02 07:30:37;;;;;;;11.25;0.80;;;;;;;12.08;100.00;98251.75;5050492;28;20381;-66
2023/12/02 07:33:03;;;;;;;14.35;1.13;;;;;;;12.06;100.00;98240.72;5049824;28;20511;-66
2023/12/02 07:35:29;;;;;;;11.52;0.93;;;;;;;12.06;100.00;98245.94;5038519;28;20048;-66
2023/12/02 07:37:55;;;;;;;7.90;0.93;;;;;;;12.10;100.00;98251.56;5059044;28;20488;-66
2023/12/02 07:40:20;;;;;;;5.45;0.93;;;;;;;12.13;100.00;98254.56;5051615;28;20119;-66
2023/12/02 07:42:45;;;;;;;12.10;0.60;;;;;;;12.14;100.00;98274.44;5056730;28;20041;-66
2023/12/02 07:45:11;;;;;;;9.50;1.27;;;;;;;12.14;100.00;98273.63;5058187;28;20055;-66
2023/12/02 07:47:36;;;;;;;13.80;0.93;;;;;;;12.12;100.00;98281.66;5051351;28;20048;-67
2023/12/02 07:50:02;;;;;;;7.13;0.60;;;;;;;12.10;100.00;98283.69;5055569;28;20120;-67
2023/12/02 07:52:27;;;;;;;9.38;0.63;;;;;;;12.09;100.00;98289.91;5045225;28;20098;-66
2023/12/02 07:54:53;;;;;;;14.63;0.82;;;;;;;12.11;100.00;98290.50;5054889;28;20041;-66
2023/12/02 07:57:18;;;;;;;10.88;0.73;;;;;;;12.15;100.00;98304.75;5062502;28;20028;-67
2023/12/02 07:59:44;;;;;;;2.25;0.50;;;;;;;12.14;100.00;98312.78;5060787;28;20034;-67
2023/12/02 08:02:09;;;;;;;4.35;0.60;;;;;;;12.17;100.00;98320.19;5058553;28;20033;-67
2023/12/02 08:04:35;;;;;;;7.95;0.30;;;;;;;12.16;100.00;98322.00;5052929;28;20045;-67
2023/12/02 08:07:00;;;;;;;4.85;0.52;;;;;;;12.16;100.00;98337.69;5053228;28;20064;-67
2023/12/02 08:09:26;;;;;;;6.10;0.35;;;;;;;12.11;100.00;98358.38;5054313;28;20028;-67
2023/12/02 08:11:51;;;;;;;5.20;0.20;;;;;;;12.09;100.00;98376.03;5058097;28;20362;-67
2023/12/02 08:14:17;;;;;;;3.03;0.20;;;;;;;12.05;100.00;98374.84;5048641;28;20059;-67
2023/12/02 08:16:42;;;;;;;2.83;0.20;;;;;;;12.01;100.00;98376.25;5061668;28;20024;-67
2023/12/02 08:19:08;;;;;;;4.95;0.77;;;;;;;12.01;100.00;98393.72;5062345;28;20036;-66
2023/12/02 08:21:34;;;;;;;7.78;0.35;;;;;;;11.98;100.00;98392.31;5060286;28;20145;-66
2023/12/02 08:23:59;;;;;;;8.43;0.80;;;;;;;11.96;100.00;98396.94;5058540;28;20028;-67
2023/12/02 08:26:24;;;;;;;1.85;0.30;;;;;;;11.96;100.00;98402.97;5058630;28;20056;-65
2023/12/02 08:28:50;;;;;;;2.80;0.20;;;;;;;11.93;100.00;98405.19;5056700;28;20046;-65
2023/12/02 08:31:16;;;;;;;0.50;0.10;;;;;;;11.88;100.00;98411.00;5064004;28;20048;-65
2023/12/02 08:33:41;;;;;;;3.92;0.10;;;;;;;11.86;100.00;98415.63;5060921;28;20028;-66
2023/12/02 08:36:07;;;;;;;5.40;0.13;;;;;;;11.87;100.00;98411.19;5056802;28;20021;-65
2023/12/02 08:38:33;;;;;;;6.60;0.25;;;;;;;11.81;100.00;98406.81;5062153;28;20073;-65
2023/12/02 08:40:58;;;;;;;4.70;0.20;;;;;;;11.79;100.00;98407.03;5058990;28;20056;-65
2023/12/02 08:43:24;;;;;;;4.10;0.10;;;;;;;11.80;100.00;98410.44;5061124;28;20039;-66
2023/12/02 08:45:49;;;;;;;7.57;0.10;;;;;;;11.80;100.00;98405.22;5057479;28;20029;-66
2023/12/02 08:48:15;;;;;;;9.43;0.10;;;;;;;11.79;100.00;98412.22;5061362;28;20028;-66
2023/12/02 08:50:40;;;;;;;4.63;0.30;;;;;;;11.81;100.00;98427.69;5060339;28;20037;-66
2023/12/02 08:53:06;;;;;;;2.53;0.40;;;;;;;11.79;100.00;98442.75;5055740;28;20044;-66
2023/12/02 08:55:31;;;;;;;7.38;0.20;;;;;;;11.76;100.00;98443.91;5064395;28;20093;-66
2023/12/02 08:57:57;;;;;;;6.40;0.35;;;;;;;11.73;100.00;98448.72;5061441;28;20107;-67
2023/12/02 09:00:22;;;;;;;2.63;0.10;;;;;;;11.73;100.00;98459.16;5057774;28;20033;-66
2023/12/02 09:02:48;;;;;;;5.90;0.20;;;;;;;11.71;100.00;98409.00;5061592;28;20036;-67
2023/12/02 09:05:13;;;;;;;7.25;0.40;;;;;;;11.67;100.00;98376.50;5066376;28;20530;-67
2023/12/02 09:07:39;;;;;;;2.80;0.38;;;;;;;11.69;100.00;98418.81;5055573;28;20040;-67
2023/12/02 09:10:05;;;;;;;1.08;0.28;;;;;;;11.72;100.00;98452.34;5064772;28;20501;-67
2023/12/02 09:12:31;;;;;;;4.20;0.30;;;;;;;11.68;100.00;98472.81;5067473;28;20170;-67
2023/12/02 09:15:20;;;;;;;2.58;0.30;;;;;;;11.62;100.00;98456.16;5069207;28;20469;-67
2023/12/02 09:18:12;;;;;;;5.38;0.40;;;;;;;11.63;100.00;98465.56;5048142;28;20044;-68
2023/12/02 09:20:49;;;;;;;0.63;0.38;;;;;;;11.63;100.00;98486.44;5041390;28;20033;-67
2023/12/02 09:23:17;;;;;;;4.28;0.20;;;;;;;11.57;100.00;98487.22;5063932;28;20047;-67
2023/12/02 09:25:43;;;;;;;3.08;0.20;;;;;;;11.57;100.00;98487.22;5064337;28;20032;-67
2023/12/02 09:28:11;;;;;;;6.72;0.35;;;;;;;11.55;100.00;98504.88;5066682;28;20036;-67
2023/12/02 09:30:40;;;;;;;2.53;0.20;;;;;;;11.51;100.00;98497.66;5058441;28;20048;-67
2023/12/02 09:33:06;;;;;;;7.63;0.45;;;;;;;11.48;100.00;98495.44;5041721;28;20120;-68
2023/12/02 09:35:32;;;;;;;2.95;0.40;;;;;;;11.44;100.00;98500.25;5054590;28;20585;-67
2023/12/02 09:37:59;;;;;;;2.15;0.20;;;;;;;11.43;100.00;98516.09;5053774;28;20071;-67
2023/12/02 09:40:48;;;;;;;2.08;0.20;;;;;;;11.41;100.00;98513.66;5057410;28;20035;-67
2023/12/02 09:43:25;;;;;;;1.90;0.10;;;;;;;11.37;100.00;98511.66;5057342;28;20155;-67
2023/12/02 09:46:16;;;;;;;2.13;0.28;;;;;;;11.37;100.00;98525.50;5060793;28;20072;-68
2023/12/02 09:49:27;;;;;;;4.45;0.30;;;;;;;11.37;100.00;98532.50;5049239;28;20043;-69
2023/12/02 09:52:13;;;;;;;9.82;0.43;;;;;;;11.34;100.00;98505.06;5055995;28;20087;-68
2023/12/02 09:55:15;;;;;;;5.05;0.20;;;;;;;11.27;100.00;98512.84;5053724;28;20055;-68
2023/12/02 09:58:09;;;;;;;4.47;0.38;;;;;;;11.25;100.00;98509.63;5044119;28;20093;-68
2023/12/02 10:00:50;;;;;;;5.15;0.20;;;;;;;11.25;100.00;98520.06;5056785;28;20024;-69
2023/12/02 10:03:25;;;;;;;8.82;0.20;;;;;;;11.28;100.00;98511.84;5057128;28;20102;-70
2023/12/02 10:06:06;;;;;;;0.25;0.10;;;;;;;11.37;100.00;98519.47;5064678;28;20024;-70
2023/12/02 10:08:53;;;;;;;4.38;0.17;;;;;;;11.41;100.00;98534.53;5064194;28;20032;-68
2023/12/02 10:11:35;;;;;;;0.50;0.10;;;;;;;11.38;100.00;98531.50;5054588;28;20106;-68
2023/12/02 10:14:11;;;;;;;7.28;0.28;;;;;;;11.37;100.00;98522.88;5060767;28;20067;-68
2023/12/02 10:16:38;;;;;;;4.13;0.35;;;;;;;11.36;100.00;98531.69;5040142;28;20130;-68
2023/12/02 10:19:09;;;;;;;5.57;0.20;;;;;;;11.33;100.00;98526.91;5043790;28;20033;-68
2023/12/02 10:21:37;;;;;;;2.60;0.10;;;;;;;11.28;100.00;98518.88;5056932;28;20044;-68
2023/12/02 10:24:08;;;;;;;5.20;0.20;;;;;;;11.24;100.00;98499.41;5055849;28;20029;-68
2023/12/02 10:27:03;;;;;;;5.45;0.30;;;;;;;11.24;100.00;98484.56;5056404;28;20029;-67
2023/12/02 10:29:35;;;;;;;5.93;0.10;;;;;;;11.33;100.00;98485.19;5055093;28;20041;-68
2023/12/02 10:32:37;;;;;;;4.70;0.30;;;;;;;11.30;100.00;98488.19;5054847;28;20367;-68
2023/12/02 10:35:31;;;;;;;1.42;0.20;;;;;;;11.46;100.00;98473.97;5065027;28;20430;-68
2023/12/02 10:38:11;;;;;;;3.47;0.20;;;;;;;11.51;100.00;98455.94;5060650;28;20135;-69
2023/12/02 10:40:36;;;;;;;5.90;0.60;;;;;;;11.58;100.00;98486.22;5060310;28;20070;-68
2023/12/02 10:43:09;;;;;;;4.57;0.40;;;;;;;11.62;100.00;98502.28;5061492;28;20032;-68
2023/12/02 10:45:39;;;;;;;2.13;0.30;;;;;;;11.54;100.00;98495.44;5059850;28;20430;-69
2023/12/02 10:48:10;;;;;;;2.15;0.20;;;;;;;11.54;100.00;98498.06;5062158;28;20478;-68
2023/12/02 10:50:36;;;;;;;3.25;0.20;;;;;;;11.57;100.00;98502.88;5059304;28;20116;-69
2023/12/02 10:53:04;;;;;;;4.53;0.38;;;;;;;11.57;100.00;98500.28;5060222;28;20111;-68
2023/12/02 10:55:31;;;;;;;3.15;0.20;;;;;;;11.57;100.00;98505.50;5056443;28;20137;-69
2023/12/02 10:57:59;;;;;;;2.28;0.30;;;;;;;11.54;100.00;98503.28;5053962;28;20036;-68
2023/12/02 11:00:29;;;;;;;3.50;0.30;;;;;;;11.52;100.00;98502.66;5046033;28;20187;-69
2023/12/02 11:03:05;;;;;;;0.52;0.20;;;;;;;11.58;100.00;98504.47;5052870;28;20049;-68
2023/12/02 11:05:44;;;;;;;;;;;;;;;11.50;100.00;98502.06;5053711;28;20021;-69
2023/12/02 11:08:19;;;;;;;5.47;0.47;;;;;;;11.44;100.00;98509.88;5054545;28;20369;-69
2023/12/02 11:10:51;;;;;;;1.48;0.28;;;;;;;11.41;100.00;98513.66;5040041;28;20546;-69
2023/12/02 11:13:21;;;;;;;4.40;0.30;;;;;;;11.37;100.00;98512.47;5059314;28;20395;-69
2023/12/02 11:15:55;;;;;;;2.95;0.10;;;;;;;11.26;100.00;98506.03;5060962;28;20032;-69
2023/12/02 11:18:43;;;;;;;5.03;0.40;;;;;;;11.17;100.00;98511.59;5055713;28;20051;-69
2023/12/02 11:21:26;;;;;;;5.10;0.68;;;;;;;11.11;100.00;98517.59;5057382;28;20025;-69
2023/12/02 11:24:05;;;;;;;1.63;0.40;;;;;;;11.10;100.00;98516.78;5034155;28;20397;-70